createdAt,value
2022-10-11T00:01:37.082Z,99034.13
2022-10-11T00:04:06.488Z,99032.28
2022-10-11T00:06:37.872Z,99042.06
2022-10-11T00:09:06.018Z,99027.47
2022-10-11T00:11:34.015Z,99030.69
2022-10-11T00:14:01.973Z,99034.50
2022-10-11T00:16:30.020Z,99032.19
2022-10-11T00:18:57.963Z,99026.63
2022-10-11T00:21:30.597Z,99022.75
2022-10-11T00:23:58.569Z,99025.09
2022-10-11T00:26:26.531Z,99027.22
2022-10-11T00:28:54.715Z,99019.50
2022-10-11T00:31:22.889Z,99015.06
2022-10-11T00:33:50.859Z,99018.19
2022-10-11T00:36:18.831Z,99025.78
2022-10-11T00:38:48.171Z,99027.81
2022-10-11T00:41:17.152Z,99029.47
2022-10-11T00:43:45.632Z,99032.50
2022-10-11T00:46:27.141Z,99043.06
2022-10-11T00:48:57.480Z,99043.88
2022-10-11T00:51:35.344Z,99054.91
2022-10-11T00:54:05.457Z,99056.16
2022-10-11T00:56:35.680Z,99059.81
2022-10-11T00:59:05.383Z,99052.03
2022-10-11T01:01:33.658Z,99055.31
2022-10-11T01:04:02.533Z,99044.19
2022-10-11T01:06:30.577Z,99049.56
2022-10-11T01:08:58.596Z,99046.44
2022-10-11T01:11:30.433Z,99041.97
2022-10-11T01:14:11.861Z,99047.84
2022-10-11T01:16:48.254Z,99043.06
2022-10-11T01:19:25.266Z,99053.47
2022-10-11T01:21:58.078Z,99044.94
2022-10-11T01:24:50.043Z,99052.75
2022-10-11T01:27:35.491Z,99055.81
2022-10-11T01:30:06.242Z,99050.84
2022-10-11T01:32:39.066Z,99049.13
2022-10-11T01:35:09.579Z,99050.19
2022-10-11T01:37:38.791Z,99056.34
2022-10-11T01:40:09.654Z,99050.84
2022-10-11T01:42:39.665Z,99062.56
2022-10-11T01:45:09.326Z,99068.31
2022-10-11T01:47:39.020Z,99069.78
2022-10-11T01:50:09.058Z,99077.34
2022-10-11T01:52:40.675Z,99074.44
2022-10-11T01:55:21.274Z,99078.41
2022-10-11T01:57:58.281Z,99074.22
2022-10-11T02:00:32.445Z,99089.28
2022-10-11T02:03:20.733Z,99089.22
2022-10-11T02:05:52.844Z,99045.63
2022-10-11T02:08:26.660Z,99086.78
2022-10-11T02:10:56.892Z,99089.44
2022-10-11T02:13:27.278Z,99084.94
2022-10-11T02:15:57.102Z,99105.97
2022-10-11T02:18:27.934Z,99103.19
2022-10-11T02:20:58.339Z,99105.53
2022-10-11T02:23:28.675Z,99109.19
2022-10-11T02:25:58.208Z,99101.34
2022-10-11T02:28:29.583Z,99104.91
2022-10-11T02:30:59.414Z,99100.84
2022-10-11T02:33:29.408Z,99099.06
2022-10-11T02:36:03.973Z,99094.09
2022-10-11T02:38:37.404Z,99097.31
2022-10-11T02:41:11.616Z,99096.03
2022-10-11T02:43:44.427Z,99092.94
2022-10-11T02:46:15.206Z,99085.84
2022-10-11T02:48:44.635Z,99081.13
2022-10-11T02:51:14.701Z,99077.06
2022-10-11T02:53:42.650Z,99085.03
2022-10-11T02:56:10.727Z,99081.94
2022-10-11T02:58:38.664Z,99086.28
2022-10-11T03:01:06.779Z,99086.06
2022-10-11T03:03:34.789Z,99080.75
2022-10-11T03:06:04.070Z,99088.16
2022-10-11T03:08:33.753Z,99086.75
2022-10-11T03:11:01.713Z,99089.81
2022-10-11T03:13:29.654Z,99088.44
2022-10-11T03:16:03.284Z,99094.09
2022-10-11T03:18:31.734Z,99093.69
2022-10-11T03:21:00.131Z,99105.72
2022-10-11T03:23:28.075Z,99102.59
2022-10-11T03:25:57.750Z,99110.56
2022-10-11T03:28:25.816Z,99113.34
2022-10-11T03:30:54.236Z,99115.06
2022-10-11T03:33:22.325Z,99110.94
2022-10-11T03:35:50.521Z,99110.94
2022-10-11T03:38:19.618Z,99113.88
2022-10-11T03:40:47.809Z,99123.78
2022-10-11T03:43:17.215Z,99119.22
2022-10-11T03:45:45.261Z,99128.53
2022-10-11T03:48:13.379Z,99132.00
2022-10-11T03:50:41.358Z,99142.31
2022-10-11T03:53:09.622Z,99143.06
2022-10-11T03:55:38.684Z,99142.09
2022-10-11T03:58:06.626Z,99143.31
2022-10-11T04:00:36.509Z,99147.81
2022-10-11T04:03:04.621Z,99151.34
2022-10-11T04:05:32.927Z,99155.19
2022-10-11T04:08:00.866Z,99150.34
2022-10-11T04:10:28.933Z,99167.16
2022-10-11T04:12:56.936Z,99165.69
2022-10-11T04:15:24.966Z,99172.38
2022-10-11T04:17:54.230Z,99163.25
2022-10-11T04:20:24.600Z,99164.16
2022-10-11T04:22:52.562Z,99161.22
2022-10-11T04:25:20.841Z,99150.13
2022-10-11T04:27:48.850Z,99158.69
2022-10-11T04:30:19.298Z,99153.47
2022-10-11T04:32:47.255Z,99161.16
2022-10-11T04:35:16.629Z,99161.75
2022-10-11T04:37:44.954Z,99159.78
2022-10-11T04:40:13.504Z,99163.03
2022-10-11T04:42:41.477Z,99166.66
2022-10-11T04:45:10.363Z,99164.97
2022-10-11T04:47:40.334Z,99162.69
2022-10-11T04:50:08.505Z,99174.88
2022-10-11T04:52:37.815Z,99175.91
2022-10-11T04:55:06.196Z,99174.00
2022-10-11T04:57:34.286Z,99175.63
2022-10-11T05:00:02.323Z,99179.84
2022-10-11T05:02:30.372Z,99185.53
2022-10-11T05:05:00.722Z,99196.75
2022-10-11T05:07:31.014Z,99201.06
2022-10-11T05:10:00.492Z,99211.56
2022-10-11T05:12:28.459Z,99219.69
2022-10-11T05:14:59.517Z,99225.16
2022-10-11T05:17:27.479Z,99231.88
2022-10-11T05:19:55.483Z,99225.50
2022-10-11T05:22:23.440Z,99223.06
2022-10-11T05:24:51.421Z,99222.28
2022-10-11T05:27:21.087Z,99229.47
2022-10-11T05:29:49.064Z,99230.53
2022-10-11T05:32:17.005Z,99235.41
2022-10-11T05:34:44.934Z,99228.56
2022-10-11T05:37:13.292Z,99228.69
2022-10-11T05:39:41.230Z,99226.75
2022-10-11T05:42:10.100Z,99224.13
2022-10-11T05:44:39.511Z,99228.47
2022-10-11T05:47:07.509Z,99233.38
2022-10-11T05:49:35.495Z,99227.66
2022-10-11T05:52:03.512Z,99235.81
2022-10-11T05:54:32.231Z,99233.38
2022-10-11T05:57:00.189Z,99232.09
2022-10-11T05:59:28.202Z,99241.66
2022-10-11T06:01:57.620Z,99246.41
2022-10-11T06:04:25.656Z,99247.19
2022-10-11T06:06:53.591Z,99246.03
2022-10-11T06:09:21.575Z,99245.22
2022-10-11T06:11:51.863Z,99252.22
2022-10-11T06:14:20.232Z,99252.44
2022-10-11T06:16:48.202Z,99247.84
2022-10-11T06:19:17.533Z,99249.69
2022-10-11T06:21:46.645Z,99245.63
2022-10-11T06:24:14.861Z,99259.09
2022-10-11T06:26:42.839Z,99253.81
2022-10-11T06:29:10.923Z,99257.50
2022-10-11T06:31:38.933Z,99265.63
2022-10-11T06:34:06.924Z,99266.53
2022-10-11T06:36:36.246Z,99253.06
2022-10-11T06:39:04.727Z,99243.63
2022-10-11T06:41:32.791Z,99240.19
2022-10-11T06:44:00.831Z,99218.75
2022-10-11T06:46:29.047Z,99252.06
2022-10-11T06:48:57.267Z,99254.72
2022-10-11T06:51:25.741Z,99249.28
2022-10-11T06:53:56.743Z,99244.06
2022-10-11T06:56:25.305Z,99240.84
2022-10-11T06:58:54.161Z,99240.47
2022-10-11T07:01:23.696Z,99239.03
2022-10-11T07:03:52.584Z,99244.09
2022-10-11T07:06:22.018Z,99249.47
2022-10-11T07:08:50.259Z,99254.00
2022-10-11T07:11:21.703Z,99259.16
2022-10-11T07:13:50.210Z,99263.59
2022-10-11T07:16:18.678Z,99264.75
2022-10-11T07:18:47.141Z,99267.56
2022-10-11T07:21:16.202Z,99272.38
2022-10-11T07:23:44.200Z,99269.84
2022-10-11T07:26:12.558Z,99273.63
2022-10-11T07:28:42.166Z,99283.56
2022-10-11T07:31:14.328Z,99281.81
2022-10-11T07:33:42.301Z,99282.56
2022-10-11T07:36:10.919Z,99291.47
2022-10-11T07:38:39.893Z,99275.56
2022-10-11T07:41:08.519Z,99269.19
2022-10-11T07:43:37.023Z,99268.94
2022-10-11T07:46:07.053Z,99269.81
2022-10-11T07:48:36.030Z,99267.59
2022-10-11T07:51:07.169Z,99256.84
2022-10-11T07:53:38.946Z,99276.06
2022-10-11T07:56:07.708Z,99285.25
2022-10-11T07:58:36.296Z,99281.31
2022-10-11T08:01:04.810Z,99287.09
2022-10-11T08:03:34.875Z,99285.16
2022-10-11T08:06:03.540Z,99285.09
2022-10-11T08:08:32.090Z,99281.66
2022-10-11T08:11:00.597Z,99295.28
2022-10-11T08:13:28.999Z,99299.06
2022-10-11T08:15:59.297Z,99295.22
2022-10-11T08:18:27.818Z,99289.00
2022-10-11T08:20:57.168Z,99292.28
2022-10-11T08:23:25.151Z,99292.19
2022-10-11T08:25:57.036Z,99298.22
2022-10-11T08:28:25.422Z,99289.75
2022-10-11T08:30:54.594Z,99299.75
2022-10-11T08:33:23.404Z,99281.81
2022-10-11T08:35:52.224Z,99298.75
2022-10-11T08:38:24.053Z,99298.44
2022-10-11T08:40:55.201Z,99295.00
2022-10-11T08:43:30.499Z,99290.84
2022-10-11T08:46:00.970Z,99290.56
2022-10-11T08:48:34.306Z,99282.19
2022-10-11T08:51:05.877Z,99284.31
2022-10-11T08:53:42.973Z,99281.66
2022-10-11T08:56:13.048Z,99278.69
2022-10-11T08:58:44.403Z,99271.38
2022-10-11T09:01:15.476Z,99278.63
2022-10-11T09:03:45.346Z,99270.06
2022-10-11T09:06:26.103Z,99274.59
2022-10-11T09:09:07.280Z,99266.75
2022-10-11T09:11:45.213Z,99286.53
2022-10-11T09:14:25.079Z,99275.66
2022-10-11T09:17:02.109Z,99272.25
2022-10-11T09:19:41.452Z,99267.00
2022-10-11T09:22:12.899Z,99267.34
2022-10-11T09:24:53.104Z,99258.59
2022-10-11T09:27:37.823Z,99256.53
2022-10-11T09:30:12.636Z,99255.66
2022-10-11T09:32:42.077Z,99256.72
2022-10-11T09:35:12.733Z,99261.03
2022-10-11T09:37:44.984Z,99255.81
2022-10-11T09:40:20.055Z,99254.66
2022-10-11T09:42:48.208Z,99258.88
2022-10-11T09:45:18.385Z,99256.16
2022-10-11T09:47:46.507Z,99252.03
2022-10-11T09:50:16.243Z,99247.41
2022-10-11T09:52:49.518Z,99252.59
2022-10-11T09:55:32.191Z,99253.31
2022-10-11T09:58:00.503Z,99256.50
2022-10-11T10:00:33.462Z,99255.94
2022-10-11T10:03:03.414Z,99254.53
2022-10-11T10:05:32.191Z,99256.31
2022-10-11T10:08:07.017Z,99249.56
2022-10-11T10:10:39.478Z,99240.50
2022-10-11T10:13:17.782Z,99248.25
2022-10-11T10:15:47.336Z,99249.19
2022-10-11T10:18:21.247Z,99257.47
2022-10-11T10:20:52.939Z,99244.34
2022-10-11T10:23:22.548Z,99255.47
2022-10-11T10:25:52.956Z,99238.78
2022-10-11T10:28:23.781Z,99244.47
2022-10-11T10:30:54.225Z,99248.84
2022-10-11T10:33:23.722Z,99249.56
2022-10-11T10:35:56.724Z,99242.13
2022-10-11T10:38:27.504Z,99240.50
2022-10-11T10:40:59.058Z,99239.25
2022-10-11T10:43:29.292Z,99246.00
2022-10-11T10:46:10.958Z,99247.41
2022-10-11T10:49:19.101Z,99234.03
2022-10-11T10:51:39.287Z,99234.59
2022-10-11T10:54:16.209Z,99231.44
2022-10-11T10:56:51.838Z,99232.25
2022-10-11T10:59:35.759Z,99241.47
2022-10-11T11:02:28.159Z,99233.69
2022-10-11T11:05:01.361Z,99233.50
2022-10-11T11:07:34.115Z,99230.06
2022-10-11T11:10:04.540Z,99232.69
2022-10-11T11:12:42.290Z,99233.03
2022-10-11T11:15:12.674Z,99221.34
2022-10-11T11:17:48.143Z,99225.72
2022-10-11T11:20:24.642Z,99221.66
2022-10-11T11:22:56.758Z,99224.63
2022-10-11T11:25:28.358Z,99218.69
2022-10-11T11:28:11.225Z,99231.88
2022-10-11T11:30:47.475Z,99215.31
2022-10-11T11:33:24.351Z,99221.88
2022-10-11T11:35:53.789Z,99219.16
2022-10-11T11:38:29.397Z,99214.72
2022-10-11T11:40:59.047Z,99223.41
2022-10-11T11:43:32.985Z,99220.88
2022-10-11T11:46:04.485Z,99222.06
2022-10-11T11:48:32.495Z,99220.56
2022-10-11T11:51:04.717Z,99213.63
2022-10-11T11:53:41.883Z,99214.53
2022-10-11T11:56:13.518Z,99217.13
2022-10-11T11:58:47.318Z,99217.78
2022-10-11T12:01:22.243Z,99216.50
2022-10-11T12:03:52.643Z,99221.25
2022-10-11T12:06:23.171Z,99206.00
2022-10-11T12:09:01.666Z,99215.69
2022-10-11T12:11:41.179Z,99213.91
2022-10-11T12:14:18.130Z,99205.66
2022-10-11T12:17:04.897Z,99210.34
2022-10-11T12:19:32.987Z,99210.47
2022-10-11T12:22:15.874Z,99211.19
2022-10-11T12:24:53.940Z,99212.88
2022-10-11T12:27:37.537Z,99204.09
2022-10-11T12:30:29.323Z,99206.94
2022-10-11T12:33:06.310Z,99195.13
2022-10-11T12:36:05.590Z,99202.84
2022-10-11T12:38:39.925Z,99190.78
2022-10-11T12:41:25.672Z,99201.72
2022-10-11T12:44:09.740Z,99202.84
2022-10-11T12:46:43.231Z,99197.94
2022-10-11T12:49:29.032Z,99195.59
2022-10-11T12:52:00.608Z,99189.97
2022-10-11T12:54:52.895Z,99198.88
2022-10-11T12:57:45.959Z,99189.41
2022-10-11T13:00:20.655Z,99186.50
2022-10-11T13:02:50.518Z,99189.69
2022-10-11T13:05:22.112Z,99195.25
2022-10-11T13:07:53.314Z,99192.59
2022-10-11T13:10:25.277Z,99183.41
2022-10-11T13:12:54.292Z,99184.44
2022-10-11T13:15:23.100Z,99181.28
2022-10-11T13:17:54.200Z,99183.41
2022-10-11T13:20:24.730Z,99187.06
2022-10-11T13:22:54.093Z,99185.16
2022-10-11T13:25:23.317Z,99194.38
2022-10-11T13:27:52.662Z,99186.38
2022-10-11T13:30:22.140Z,99185.66
2022-10-11T13:32:50.938Z,99192.28
2022-10-11T13:35:26.681Z,99184.97
2022-10-11T13:37:54.694Z,99189.56
2022-10-11T13:40:23.189Z,99184.22
2022-10-11T13:42:52.399Z,99183.38
2022-10-11T13:45:21.880Z,99181.94
2022-10-11T13:47:50.580Z,99188.63
2022-10-11T13:50:30.251Z,99184.44
2022-10-11T13:52:59.874Z,99187.28
2022-10-11T13:55:31.496Z,99179.16
2022-10-11T13:58:02.794Z,99177.75
2022-10-11T14:00:35.029Z,99179.22
2022-10-11T14:03:05.646Z,99175.19
2022-10-11T14:05:36.778Z,99169.88
2022-10-11T14:08:06.495Z,99173.91
2022-10-11T14:10:34.658Z,99172.59
2022-10-11T14:13:04.047Z,99164.59
2022-10-11T14:15:33.448Z,99166.47
2022-10-11T14:18:02.126Z,99161.16
2022-10-11T14:20:38.978Z,99157.19
2022-10-11T14:23:07.787Z,99166.03
2022-10-11T14:25:35.810Z,99155.00
2022-10-11T14:28:11.686Z,99158.81
2022-10-11T14:30:41.734Z,99162.94
2022-10-11T14:33:09.710Z,99166.16
2022-10-11T14:35:40.163Z,99156.78
2022-10-11T14:38:10.289Z,99157.16
2022-10-11T14:40:38.285Z,99155.22
2022-10-11T14:43:06.354Z,99168.44
2022-10-11T14:45:34.362Z,99154.34
2022-10-11T14:48:02.457Z,99158.66
2022-10-11T14:50:33.661Z,99154.34
2022-10-11T14:53:03.147Z,99155.72
2022-10-11T14:55:33.537Z,99157.25
2022-10-11T14:58:03.857Z,99161.00
2022-10-11T15:00:32.109Z,99161.59
2022-10-11T15:03:00.248Z,99158.03
2022-10-11T15:05:33.972Z,99157.78
2022-10-11T15:08:03.829Z,99159.16
2022-10-11T15:10:34.665Z,99150.63
2022-10-11T15:13:02.995Z,99155.94
2022-10-11T15:15:35.186Z,99149.09
2022-10-11T15:18:04.089Z,99155.00
2022-10-11T15:20:33.190Z,99153.81
2022-10-11T15:23:05.724Z,99155.84
2022-10-11T15:25:34.554Z,99153.25
2022-10-11T15:28:03.106Z,99162.50
2022-10-11T15:30:33.249Z,99161.78
2022-10-11T15:33:04.135Z,99155.34
2022-10-11T15:35:32.157Z,99151.59
2022-10-11T15:38:00.701Z,99149.34
2022-10-11T15:40:33.357Z,99159.88
2022-10-11T15:43:04.127Z,99150.69
2022-10-11T15:45:32.161Z,99151.28
2022-10-11T15:48:02.455Z,99152.81
2022-10-11T15:50:37.727Z,99158.81
2022-10-11T15:53:06.809Z,99151.03
2022-10-11T15:55:37.862Z,99145.31
2022-10-11T15:58:05.926Z,99146.59
2022-10-11T16:00:33.912Z,99149.31
2022-10-11T16:03:01.905Z,99157.72
2022-10-11T16:05:30.329Z,99155.69
2022-10-11T16:07:58.312Z,99156.88
2022-10-11T16:10:26.356Z,99149.66
2022-10-11T16:12:55.988Z,99150.72
2022-10-11T16:15:24.374Z,99157.28
2022-10-11T16:17:52.370Z,99160.72
2022-10-11T16:20:22.257Z,99158.00
2022-10-11T16:22:50.715Z,99160.81
2022-10-11T16:25:18.853Z,99162.78
2022-10-11T16:27:46.891Z,99160.22
2022-10-11T16:30:17.146Z,99166.72
2022-10-11T16:32:45.356Z,99169.72
2022-10-11T16:35:13.938Z,99172.41
2022-10-11T16:37:42.386Z,99168.13
2022-10-11T16:40:11.246Z,99171.22
2022-10-11T16:42:39.793Z,99178.34
2022-10-11T16:45:08.247Z,99175.31
2022-10-11T16:47:37.611Z,99182.91
2022-10-11T16:50:06.150Z,99181.50
2022-10-11T16:52:34.159Z,99183.56
2022-10-11T16:55:02.155Z,99190.72
2022-10-11T16:57:30.354Z,99193.13
2022-10-11T16:59:58.359Z,99183.53
2022-10-11T17:02:32.173Z,99186.47
2022-10-11T17:05:02.373Z,99191.75
2022-10-11T17:07:30.509Z,99187.69
2022-10-11T17:09:59.450Z,99181.94
2022-10-11T17:12:27.874Z,99182.84
2022-10-11T17:14:56.187Z,99179.69
2022-10-11T17:17:24.488Z,99184.88
2022-10-11T17:19:52.538Z,99180.34
2022-10-11T17:22:21.934Z,99177.75
2022-10-11T17:24:52.099Z,99181.38
2022-10-11T17:27:20.098Z,99172.91
2022-10-11T17:29:50.457Z,99168.03
2022-10-11T17:32:18.456Z,99164.13
2022-10-11T17:34:46.452Z,99168.84
2022-10-11T17:37:14.442Z,99173.28
2022-10-11T17:39:43.793Z,99172.94
2022-10-11T17:42:11.835Z,99181.31
2022-10-11T17:44:39.829Z,99189.50
2022-10-11T17:47:07.828Z,99183.19
2022-10-11T17:49:35.813Z,99185.16
2022-10-11T17:52:03.944Z,99185.59
2022-10-11T17:54:31.951Z,99194.56
2022-10-11T17:57:01.324Z,99189.84
2022-10-11T17:59:32.216Z,99192.34
2022-10-11T18:02:00.184Z,99188.47
2022-10-11T18:04:29.890Z,99192.97
2022-10-11T18:06:57.899Z,99192.59
2022-10-11T18:09:25.879Z,99191.84
2022-10-11T18:11:56.304Z,99197.84
2022-10-11T18:14:25.676Z,99191.97
2022-10-11T18:16:53.674Z,99197.13
2022-10-11T18:19:21.694Z,99192.00
2022-10-11T18:21:49.641Z,99204.09
2022-10-11T18:24:17.706Z,99201.59
2022-10-11T18:26:46.317Z,99185.34
2022-10-11T18:29:14.526Z,99200.22
2022-10-11T18:31:43.877Z,99191.69
2022-10-11T18:34:13.738Z,99195.16
2022-10-11T18:36:41.785Z,99189.97
2022-10-11T18:39:12.237Z,99184.44
2022-10-11T18:41:42.133Z,99195.84
2022-10-11T18:44:10.892Z,99186.63
2022-10-11T18:46:40.949Z,99194.31
2022-10-11T18:49:10.537Z,99205.09
2022-10-11T18:51:39.482Z,99209.41
2022-10-11T18:54:08.294Z,99200.25
2022-10-11T18:56:37.105Z,99205.19
2022-10-11T18:59:08.515Z,99200.47
2022-10-11T19:01:38.595Z,99193.09
2022-10-11T19:04:07.347Z,99194.06
2022-10-11T19:06:37.496Z,99194.44
2022-10-11T19:09:09.210Z,99189.66
2022-10-11T19:11:37.394Z,99181.81
2022-10-11T19:14:07.247Z,99175.78
2022-10-11T19:16:37.509Z,99178.03
2022-10-11T19:19:09.432Z,99186.50
2022-10-11T19:21:38.956Z,99189.69
2022-10-11T19:24:07.142Z,99192.97
2022-10-11T19:26:37.082Z,99192.63
2022-10-11T19:29:06.512Z,99190.91
2022-10-11T19:31:35.990Z,99195.06
2022-10-11T19:34:04.027Z,99195.19
2022-10-11T19:36:36.453Z,99194.47
2022-10-11T19:39:07.006Z,99187.44
2022-10-11T19:41:35.009Z,99193.09
2022-10-11T19:44:03.007Z,99196.28
2022-10-11T19:46:51.149Z,99191.72
2022-10-11T19:49:21.422Z,99184.44
2022-10-11T19:51:49.420Z,99187.66
2022-10-11T19:54:19.060Z,99191.72
2022-10-11T19:56:47.063Z,99192.22
2022-10-11T19:59:15.565Z,99191.59
2022-10-11T20:01:47.911Z,99188.16
2022-10-11T20:04:40.039Z,99194.66
2022-10-11T20:07:07.226Z,99204.47
2022-10-11T20:09:36.986Z,99203.59
2022-10-11T20:12:07.603Z,99203.28
2022-10-11T20:14:35.608Z,99209.47
2022-10-11T20:17:03.644Z,99204.94
2022-10-11T20:19:31.928Z,99215.19
2022-10-11T20:22:00.241Z,99222.13
2022-10-11T20:24:32.246Z,99222.22
2022-10-11T20:27:05.344Z,99230.91
2022-10-11T20:29:33.687Z,99225.94
2022-10-11T20:32:01.779Z,99228.22
2022-10-11T20:34:30.347Z,99224.88
2022-10-11T20:36:58.867Z,99227.72
2022-10-11T20:39:27.374Z,99223.88
2022-10-11T20:41:58.004Z,99233.13
2022-10-11T20:44:27.498Z,99223.22
2022-10-11T20:46:56.189Z,99228.03
2022-10-11T20:49:25.557Z,99222.16
2022-10-11T20:51:55.696Z,99236.19
2022-10-11T20:54:23.742Z,99232.81
2022-10-11T20:56:51.734Z,99226.75
2022-10-11T20:59:21.870Z,99217.91
2022-10-11T21:01:54.265Z,99220.38
2022-10-11T21:04:22.243Z,99215.38
2022-10-11T21:06:50.451Z,99212.44
2022-10-11T21:09:19.051Z,99213.47
2022-10-11T21:11:47.013Z,99217.66
2022-10-11T21:14:17.363Z,99216.97
2022-10-11T21:16:45.378Z,99215.00
2022-10-11T21:19:16.291Z,99215.03
2022-10-11T21:21:50.947Z,99216.34
2022-10-11T21:24:21.539Z,99198.44
2022-10-11T21:26:49.544Z,99227.81
2022-10-11T21:29:20.055Z,99217.38
2022-10-11T21:31:48.060Z,99216.22
2022-10-11T21:34:17.571Z,99226.94
2022-10-11T21:36:45.572Z,99227.84
2022-10-11T21:39:13.540Z,99230.63
2022-10-11T21:41:42.131Z,99236.00
2022-10-11T21:44:10.387Z,99233.28
2022-10-11T21:47:08.079Z,99227.84
2022-10-11T21:49:27.648Z,99219.38
2022-10-11T21:51:55.669Z,99220.97
2022-10-11T21:54:24.012Z,99216.53
2022-10-11T21:56:52.016Z,99209.78
2022-10-11T22:02:37.185Z,99191.13
2022-10-11T22:05:06.062Z,99189.69
2022-10-11T22:07:34.080Z,99191.59
2022-10-11T22:10:02.038Z,99201.75
2022-10-11T22:12:30.032Z,99197.53
2022-10-11T22:14:58.002Z,99192.84
2022-10-11T22:17:25.977Z,99192.63
2022-10-11T22:19:55.410Z,99192.47
2022-10-11T22:22:23.352Z,99192.47
2022-10-11T22:24:51.396Z,99187.97
2022-10-11T22:27:19.364Z,99185.28
2022-10-11T22:29:47.383Z,99175.19
2022-10-11T22:32:15.320Z,99174.56
2022-10-11T22:34:43.406Z,99179.59
2022-10-11T22:37:12.731Z,99178.19
2022-10-11T22:39:40.704Z,99179.16
2022-10-11T22:42:08.683Z,99169.66
2022-10-11T22:44:36.624Z,99172.81
2022-10-11T22:47:04.638Z,99178.44
2022-10-11T22:49:34.699Z,99171.78
2022-10-11T22:52:02.641Z,99176.97
2022-10-11T22:54:32.269Z,99178.00
2022-10-11T22:57:00.428Z,99175.78
2022-10-11T22:59:28.377Z,99179.69
2022-10-11T23:01:58.838Z,99175.56
2022-10-11T23:04:26.827Z,99177.53
2022-10-11T23:06:54.803Z,99180.31
2022-10-11T23:09:26.420Z,99182.19
2022-10-11T23:11:58.071Z,99174.94
2022-10-11T23:14:28.212Z,99180.09
2022-10-11T23:16:56.154Z,99170.31
2022-10-11T23:19:24.170Z,99165.34
2022-10-11T23:21:54.219Z,99163.59
2022-10-11T23:24:22.213Z,99168.66
2022-10-11T23:26:50.167Z,99165.97
2022-10-11T23:29:19.841Z,99165.50
2022-10-11T23:31:47.916Z,99162.44
2022-10-11T23:34:15.892Z,99160.53
2022-10-11T23:36:43.813Z,99164.88
2022-10-11T23:39:12.372Z,99164.16
2022-10-11T23:41:43.079Z,99163.91
2022-10-11T23:44:11.431Z,99173.59
2022-10-11T23:46:40.733Z,99177.22
2022-10-11T23:49:11.199Z,99173.06
2022-10-11T23:51:39.496Z,99180.78
2022-10-11T23:54:07.695Z,99176.78
2022-10-11T23:56:35.688Z,99177.03
2022-10-11T23:59:03.670Z,99177.47
